Half Moon Bay, CA (94019)

11:09 PM PDT on August 22, 2014 (GMT -0700)
Canada Cove | Change Station
CLOSE
Current Station
Personal Weather Station
Location: Half Moon Bay, CA
Elevation: 95 ft
Nearby Weather Stations

Elev 95 ft 37.43 °N, 122.43 °W | Updated 9 seconds ago

Overcast
Overcast
60.7 °F
Feels Like 60.7 °F
N
1.9
Wind Variable Wind from SW
Gusts 4.0 mph

Today
High -- | Low -- °F
--% Chance of Precip.
Yesterday
High -- | Low -- °F
Precip. -- in
6:31 AM 7:52 PM
Waning Crescent, 5% visible
Pressure 29.96 in
Visibility 7.0 miles
Clouds Overcast 900 ft
Dew Point 57 °F
Humidity 87%
Rainfall 0.00 in
Snow Depth Not available.
UV 0 out of 12
Pollen 5.70 out of 12
Air Quality Not available.
Flu Activity Not available.
METAR KHAF 230555Z AUTO 17004KT 7SM OVC009 15/14 A2996 RMK AO2

More Conditions Fewer Conditions

Pressure 29.96 in
Visibility 7.0 miles
Clouds Overcast 900 ft
Dew Point 57 °F
Humidity 87%
Rainfall 0.00 in
Snow Depth Not available.
UV 0 out of 12
Pollen 5.70 out of 12
Air Quality Not available.
Flu Activity Not available.
METAR KHAF 230555Z AUTO 17004KT 7SM OVC009 15/14 A2996 RMK AO2

More Conditions Fewer Conditions

10-Day Weather Forecast

Almanac

Astronomy

Aug. 22, 2014 Rise Set
Actual Time 6:31 AM PDT 7:52 PM PDT
Civil Twilight 6:04 AM PDT 8:19 PM PDT
Nautical Twilight 5:31 AM PDT 8:52 PM PDT
Astronomical Twilight 4:57 AM PDT 9:26 PM PDT
Moon 4:00 AM PDT (8/22) 6:03 PM PDT (8/22)
Length of Visible Light 14h 15m
Length of Day
13h 20m
Tomorrow will be 2m 12s shorter.
Waning Crescent, 5% of the Moon is Illuminated
Aug 23
Waning Crescent
Aug 25
New
Sep 2
First Quarter
Sep 8
Full
Sep 15
Last Quarter

Community

WunderPhotos

Upload Photos

1,746,372 photos uploaded!

WunderBlogs® & News

By Dr. Jeff Masters
Director of Meteorology, Weather Underground
By Kari Strenfel
Meteorologist, Weather Underground
By Christopher C. Burt
Weather Historian, Weather Underground
August 23, 2014
August 23, 2014
August 22, 2014

Nearby

Snow Depth

Station Depth Elevation
Blue Lakes 0 in 8000 ft
Forestdale Creek 0 in 8029 ft
Echo Peak 1 in 7800 ft
Leavitt Lake 1 in 9400 ft
Fallen Leaf 0 in 6300 ft

Earthquake Activity

City Distance Mag. Time & Date
Coalinga, California 139 miles 2.5 7:03 AM PDT
2014-08-18
Berkeley, California 31 miles 2.6 7:41 PM PDT
2014-08-16
Minimum magnitude displayed is 2.5.

Coastal Water Temperatures

Place Temperature
Point Reyes, CA 64.0 °F
San Francisco, CA 64.0 °F
Richmond, CA 66.9 °F

Nearby Weather Stations